Teeswater, Canada
Current Conditions -  °F | °C
As of 8:00 PM on Wednesday 22 Oct 2014 (Local Time) from CYVV Reporting Station
Clear Clear  
Wind Chill: 45°   Ceiling: Unl
Heat Index: 45°   Visibility: 15mi
Dew Point: 37°   Wind: 2mph
Humidity: 76%   Direction: 350°N
Pressure: 30.28"   Gusts: NA
Location:  43.98°N, 81.28°W
Report Text: CYVV 230000Z 35002KT 15SM SKC 07/03 A3028 RMK WND L/V SLP263
Loading
Personal Weather Stations






























Interactive Weather Map
Tropical Storm Tracking
New forecast layout! Learn more

10-Day Weather Forecast

Advertisements
Track Severe Weather on mobile